Weather History For Prescott AZ
This page updates 5 minutes after midnight. GMT -7
Station: KPRC0 Rows: 26
| Year | Date | Temp (°F) | Tmin (°F) | Tmax (°F) | RH% | Prcp | Snow | Wind | Gust | Pres | Sun | Cloud |
|---|---|---|---|---|---|---|---|---|---|---|---|---|
| 2000 | 2000-04-29 | 61.2 | 48.0 | 71.1 | 22 | — | — | 18.8 | — | 29.78 | — | 1 |
| 2001 | 2001-04-29 | 60.6 | 42.1 | 75.0 | 28 | — | — | 13.9 | — | 29.91 | — | 0 |
| 2002 | 2002-04-29 | 61.3 | 46.4 | 73.4 | 29 | — | — | 16.2 | — | 29.91 | — | 0 |
| 2003 | 2003-04-29 | 54.7 | — | — | 25 | — | — | 18.3 | — | 29.77 | — | 0 |
| 2004 | 2004-04-29 | 56.3 | 44.6 | 62.6 | 23 | — | — | 22.7 | — | 29.61 | — | 1 |
| 2005 | 2005-04-29 | 47.8 | 35.1 | 59.0 | 61 | 0.0 | — | 11.5 | — | 29.96 | — | 3 |
| 2006 | 2006-04-29 | 60.3 | 42.1 | 73.9 | 42 | 0.0 | — | 11.7 | — | 29.94 | — | 1 |
| 2007 | 2007-04-29 | 64.9 | 50.0 | 82.0 | 40 | — | — | 10.6 | — | 29.94 | — | 2 |
| 2008 | 2008-04-29 | 64.2 | 45.0 | 79.0 | 15 | 0.0 | — | 16.6 | — | 29.79 | — | 0 |
| 2009 | 2009-04-29 | 58.3 | 42.1 | 73.0 | 25 | 0.0 | — | 13.9 | — | 29.90 | — | 0 |
| 2010 | 2010-04-29 | 44.6 | 35.1 | 53.1 | 41 | — | — | 20.2 | — | 29.59 | — | 3 |
| 2011 | 2011-04-29 | 61.3 | 48.9 | 71.1 | 25 | 0.0 | — | 17.0 | — | 29.71 | — | 0 |
| 2012 | 2012-04-29 | 61.7 | 43.0 | 75.9 | 26 | 0.0 | — | 12.6 | — | 29.80 | — | 0 |
| 2013 | 2013-04-29 | 68.9 | 48.9 | 84.9 | 16 | 0.0 | — | 13.4 | — | 29.73 | — | 0 |
| 2014 | 2014-04-29 | 52.7 | 36.0 | 66.0 | 19 | 0.0 | — | 18.3 | — | 30.06 | — | 0 |
| 2015 | 2015-04-29 | 64.6 | 46.0 | 78.1 | 34 | 0.0 | — | 8.8 | — | 29.91 | — | 1 |
| 2016 | 2016-04-29 | 49.8 | 39.9 | 60.1 | 65 | — | — | 8.4 | — | 29.80 | — | — |
| 2017 | 2017-04-29 | 48.7 | 33.1 | 62.1 | 29 | 0.0 | — | 18.3 | — | 29.90 | — | 2 |
| 2018 | 2018-04-29 | 62.1 | 48.0 | 71.1 | 16 | 0.0 | — | 21.7 | — | 29.72 | — | 0 |
| 2019 | 2019-04-29 | 58.6 | 48.9 | 66.9 | 47 | — | — | 15.6 | — | 29.70 | — | — |
| 2020 | 2020-04-29 | 70.3 | 50.0 | 86.0 | 29 | 0.0 | — | 10.5 | — | 29.95 | — | 0 |
| 2021 | 2021-04-29 | 61.0 | 39.9 | 77.0 | 33 | 0.0 | — | 8.8 | — | 30.09 | — | 0 |
| 2022 | 2022-04-29 | 59.0 | 39.0 | 75.9 | 21 | 0.0 | — | 11.5 | — | 29.83 | — | 0 |
| 2023 | 2023-04-29 | 64.9 | 43.0 | 82.9 | 20 | 0.0 | — | 8.5 | — | 29.98 | — | 0 |
| 2024 | 2024-04-29 | 58.5 | 41.0 | 73.0 | 34 | 0.0 | — | 11.3 | — | 29.86 | — | 0 |
| 2025 | 2025-04-29 | 52.2 | 42.1 | 63.0 | 38 | 0.9 | — | 7.9 | — | 29.91 | — | 2 |